Time;durP1;ratioP1;P1;durP2;ratioP2;P2;SDS_P1;SDS_P2;PMS_P1;PMS_P2;Temp;Humidity;BMP_temperature;BMP_pressure;BME280_temperature;BME280_humidity;BME280_pressure;Samples;Min_cycle;Max_cycle;Signal;HPM_P1;HPM_P2
2021/01/10 00:01:26;;;;;;;76.13;26.57;;;-1.90;99.90;;;;;;4397656;28;659623;-67
2021/01/10 00:04:13;;;;;;;72.07;26.63;;;-1.80;99.90;;;;;;4409354;28;659540;-68
2021/01/10 00:07:00;;;;;;;67.40;24.58;;;-1.80;99.90;;;;;;4391692;28;658948;-68
2021/01/10 00:09:47;;;;;;;71.65;25.45;;;-1.80;99.90;;;;;;4402453;28;660475;-68
2021/01/10 00:12:34;;;;;;;73.33;27.53;;;-1.60;99.90;;;;;;4387049;28;658659;-65
2021/01/10 00:15:21;;;;;;;78.30;26.30;;;-1.50;99.90;;;;;;4420228;28;658901;-68
2021/01/10 00:18:09;;;;;;;75.10;28.07;;;-1.60;99.90;;;;;;4395847;28;658436;-64
2021/01/10 00:20:56;;;;;;;81.27;29.43;;;-1.60;99.90;;;;;;4408295;28;659865;-68
2021/01/10 00:23:43;;;;;;;75.50;27.83;;;-1.60;99.90;;;;;;4411769;28;658844;-66
2021/01/10 00:26:33;;;;;;;70.93;25.50;;;-1.70;99.90;;;;;;4396862;28;659108;-68
2021/01/10 00:29:21;;;;;;;74.63;27.30;;;-1.60;99.90;;;;;;4380516;28;659204;-68
2021/01/10 00:32:09;;;;;;;78.30;27.87;;;-1.50;99.90;;;;;;4418425;28;658592;-68
2021/01/10 00:34:56;;;;;;;76.00;26.27;;;-1.60;99.90;;;;;;4391857;28;658802;-67
2021/01/10 00:37:46;;;;;;;78.03;26.60;;;-1.60;99.90;;;;;;4408091;28;658885;-68
2021/01/10 00:40:33;;;;;;;78.20;26.00;;;-1.60;99.90;;;;;;4393079;28;659075;-69
2021/01/10 00:43:20;;;;;;;71.40;25.33;;;-1.60;99.90;;;;;;4385969;28;659814;-68
2021/01/10 00:46:13;;;;;;;69.10;24.30;;;-1.60;99.90;;;;;;4415506;28;659053;-69
2021/01/10 00:49:01;;;;;;;71.03;25.67;;;-1.50;99.90;;;;;;4391004;28;658627;-69
2021/01/10 00:51:50;;;;;;;72.90;25.83;;;-1.50;99.90;;;;;;4415561;28;658589;-69
2021/01/10 00:54:37;;;;;;;70.77;25.73;;;-1.50;99.90;;;;;;4386843;28;659749;-67
2021/01/10 00:57:24;;;;;;;77.70;26.53;;;-1.40;99.90;;;;;;4391867;28;658334;-65
2021/01/10 01:00:13;;;;;;;76.63;27.53;;;-1.30;99.90;;;;;;4416094;28;660454;-68
2021/01/10 01:03:00;;;;;;;72.60;25.98;;;-1.40;99.90;;;;;;4379784;28;658780;-68
2021/01/10 01:05:48;;;;;;;80.60;26.38;;;-1.40;99.90;;;;;;4403301;28;660135;-68
2021/01/10 01:08:35;;;;;;;76.00;26.70;;;-1.30;99.90;;;;;;4391579;28;660045;-68
2021/01/10 01:11:27;;;;;;;78.83;28.43;;;-1.30;99.90;;;;;;4410586;28;659057;-68
2021/01/10 01:14:15;;;;;;;71.60;28.17;;;-1.30;99.90;;;;;;4363610;28;658685;-67
2021/01/10 01:17:02;;;;;;;74.27;28.63;;;-1.40;99.90;;;;;;4414943;28;659295;-68
2021/01/10 01:19:49;;;;;;;79.47;27.93;;;-1.40;99.90;;;;;;4395660;28;658754;-64
2021/01/10 01:22:37;;;;;;;86.37;31.27;;;-1.40;99.90;;;;;;4419280;28;660299;-68
2021/01/10 01:25:24;;;;;;;87.93;32.30;;;-1.30;99.90;;;;;;4396000;28;658725;-65
2021/01/10 01:28:11;;;;;;;86.87;30.00;;;-1.40;99.90;;;;;;4414452;28;660381;-68
2021/01/10 01:30:58;;;;;;;97.77;32.23;;;-1.40;99.90;;;;;;4401638;28;658887;-68
2021/01/10 01:33:45;;;;;;;88.30;33.90;;;-1.50;99.90;;;;;;4384400;28;658707;-67
2021/01/10 01:36:32;;;;;;;98.53;34.27;;;-1.50;99.90;;;;;;4408400;28;659886;-68
2021/01/10 01:39:20;;;;;;;86.90;32.27;;;-1.50;99.90;;;;;;4396010;28;658564;-65
2021/01/10 01:42:07;;;;;;;94.57;34.70;;;-1.50;99.90;;;;;;4408728;28;658963;-68
2021/01/10 01:44:54;;;;;;;98.90;35.50;;;-1.50;99.90;;;;;;4395936;28;658552;-63
2021/01/10 01:47:41;;;;;;;94.40;34.13;;;-1.50;99.90;;;;;;4414385;28;658640;-68
2021/01/10 01:50:27;;;;;;;93.57;35.30;;;-1.50;99.90;;;;;;4414393;28;658556;-68
2021/01/10 01:53:15;;;;;;;100.33;34.93;;;-1.50;99.90;;;;;;4395274;28;659288;-68
2021/01/10 01:56:02;;;;;;;105.90;36.63;;;-1.50;99.90;;;;;;4413222;28;660823;-68
2021/01/10 01:58:56;;;;;;;102.23;35.90;;;-1.50;99.90;;;;;;4389205;28;661489;-67
2021/01/10 02:01:44;;;;;;;111.30;37.83;;;-1.50;99.90;;;;;;4374839;28;659934;-64
2021/01/10 02:04:31;;;;;;;112.07;38.20;;;-1.50;99.90;;;;;;4411853;28;660602;-68
2021/01/10 02:07:21;;;;;;;101.07;33.53;;;-1.50;99.90;;;;;;4407093;28;659943;-65
2021/01/10 02:10:10;;;;;;;109.70;38.43;;;-1.40;99.90;;;;;;4398347;28;659515;-64
2021/01/10 02:12:59;;;;;;;115.20;40.70;;;-1.40;99.90;;;;;;4411486;28;661028;-67
2021/01/10 02:15:46;;;;;;;116.93;38.73;;;-1.40;99.90;;;;;;4376845;28;660841;-68
2021/01/10 02:18:35;;;;;;;116.33;40.73;;;-1.50;99.90;;;;;;4409541;28;661197;-64
2021/01/10 02:21:24;;;;;;;125.70;42.27;;;-1.40;99.90;;;;;;4413406;28;660506;-68
2021/01/10 02:24:12;;;;;;;134.47;44.73;;;-1.40;99.90;;;;;;4384579;28;660954;-67
2021/01/10 02:26:59;;;;;;;103.00;33.47;;;-1.40;99.90;;;;;;4389500;28;659846;-66
2021/01/10 02:29:46;;;;;;;133.47;45.63;;;-1.30;99.90;;;;;;4401062;28;661377;-68
2021/01/10 02:32:33;;;;;;;130.67;43.93;;;-1.30;99.90;;;;;;4412625;28;659585;-68
2021/01/10 02:35:20;;;;;;;136.77;45.83;;;-1.30;99.90;;;;;;4397316;28;659531;-67
2021/01/10 02:38:23;;;;;;;139.77;47.43;;;-1.30;99.90;;;;;;4415940;28;661333;-68
2021/01/10 02:41:19;;;;;;;122.67;43.93;;;-1.30;99.90;;;;;;4365091;28;660753;-68
2021/01/10 02:44:24;;;;;;;121.03;36.73;;;-1.30;99.90;;;;;;4369477;28;660610;-68
2021/01/10 02:47:11;;;;;;;112.60;37.47;;;-1.10;99.90;;;;;;4367908;28;660849;-68
2021/01/10 02:49:58;;;;;;;143.77;45.30;;;-1.00;99.90;;;;;;4416083;28;660218;-68
2021/01/10 02:52:47;;;;;;;141.53;48.90;;;-1.00;99.90;;;;;;4377133;28;660592;-68
2021/01/10 02:55:34;;;;;;;147.47;47.90;;;-1.20;99.90;;;;;;4396914;28;659746;-66
2021/01/10 02:58:24;;;;;;;133.50;46.70;;;-1.20;99.90;;;;;;4414730;28;660832;-67
2021/01/10 03:01:13;;;;;;;148.80;48.27;;;-1.30;99.90;;;;;;4388591;28;660056;-67
2021/01/10 03:04:00;;;;;;;147.50;48.57;;;-1.40;99.90;;;;;;4372402;28;661116;-67
2021/01/10 03:06:47;;;;;;;154.40;46.93;;;-1.50;99.90;;;;;;4408584;28;659131;-67
2021/01/10 03:09:34;;;;;;;129.40;44.37;;;-1.40;99.90;;;;;;4384554;28;659697;-66
2021/01/10 03:12:25;;;;;;;136.63;47.03;;;-1.20;99.90;;;;;;4415693;28;660884;-68
2021/01/10 03:15:13;;;;;;;129.83;46.40;;;-1.30;99.90;;;;;;4391900;28;661018;-68
2021/01/10 03:18:16;;;;;;;134.27;44.83;;;-1.40;99.90;;;;;;4392375;28;660997;-68
2021/01/10 03:21:04;;;;;;;138.63;46.37;;;-1.20;99.90;;;;;;4372085;28;660103;-64
2021/01/10 03:23:51;;;;;;;137.23;48.43;;;-1.30;99.90;;;;;;4410322;28;661813;-67
2021/01/10 03:26:38;;;;;;;132.43;45.23;;;-1.50;99.90;;;;;;4407458;28;659596;-68
2021/01/10 03:29:25;;;;;;;150.73;48.07;;;-1.60;99.90;;;;;;4386887;28;659696;-67
2021/01/10 03:32:13;;;;;;;139.40;47.60;;;-1.70;99.90;;;;;;4409773;28;660664;-67
2021/01/10 03:34:59;;;;;;;130.97;44.97;;;-1.80;99.90;;;;;;4391328;28;659739;-68
2021/01/10 03:37:47;;;;;;;138.27;47.17;;;-1.90;99.90;;;;;;4415054;28;661469;-68
2021/01/10 03:40:34;;;;;;;136.83;45.43;;;-2.00;99.90;;;;;;4397176;28;659690;-65
2021/01/10 03:43:21;;;;;;;140.20;45.87;;;-2.10;99.90;;;;;;4419526;28;660823;-68
2021/01/10 03:46:08;;;;;;;129.47;46.70;;;-2.20;99.90;;;;;;4412989;28;659779;-68
2021/01/10 03:48:56;;;;;;;137.00;47.40;;;-2.30;99.90;;;;;;4390000;28;659883;-68
2021/01/10 03:51:43;;;;;;;140.07;43.80;;;-2.40;99.90;;;;;;4415007;28;660416;-68
2021/01/10 03:54:30;;;;;;;138.60;46.95;;;-2.40;99.90;;;;;;4395268;28;660621;-67
2021/01/10 03:57:17;;;;;;;134.60;45.03;;;-2.30;99.90;;;;;;4407239;28;660558;-68
2021/01/10 04:00:05;;;;;;;144.43;45.67;;;-2.40;99.90;;;;;;4376170;28;660566;-65
2021/01/10 04:02:52;;;;;;;137.87;45.67;;;-2.60;99.90;;;;;;4386347;28;659737;-67
2021/01/10 04:05:40;;;;;;;139.07;45.83;;;-2.80;99.90;;;;;;4362380;28;661005;-67
2021/01/10 04:08:27;;;;;;;138.60;43.30;;;-2.90;99.90;;;;;;4392698;28;659123;-68
2021/01/10 04:11:14;;;;;;;132.10;44.17;;;-3.00;99.90;;;;;;4368372;28;659662;-67
2021/01/10 04:14:01;;;;;;;133.00;43.80;;;-3.20;99.90;;;;;;4388354;28;660887;-68
2021/01/10 04:16:51;;;;;;;130.97;43.73;;;-3.30;99.90;;;;;;4380106;28;660372;-65
2021/01/10 04:19:39;;;;;;;144.43;45.43;;;-3.40;99.90;;;;;;4383941;28;659672;-65
2021/01/10 04:22:26;;;;;;;135.57;44.20;;;-3.50;99.90;;;;;;4393469;28;659669;-67
2021/01/10 04:25:14;;;;;;;137.93;44.27;;;-3.70;99.90;;;;;;4364458;28;659639;-64
2021/01/10 04:28:01;;;;;;;149.02;45.63;;;-3.80;99.90;;;;;;4383600;28;659716;-68
2021/01/10 04:30:48;;;;;;;143.45;44.80;;;-3.90;99.90;;;;;;4387663;28;659754;-68
2021/01/10 04:33:35;;;;;;;140.37;44.03;;;-4.00;99.90;;;;;;4366903;28;660657;-66
2021/01/10 04:36:22;;;;;;;135.00;44.17;;;-4.00;99.90;;;;;;4380856;28;660164;-68
2021/01/10 04:39:10;;;;;;;139.23;44.60;;;-4.00;99.90;;;;;;4363928;28;659932;-66
2021/01/10 04:41:57;;;;;;;137.77;44.93;;;-4.10;99.90;;;;;;4383926;28;660762;-67
2021/01/10 04:44:44;;;;;;;147.30;44.05;;;-4.20;99.90;;;;;;4370108;28;660725;-62
2021/01/10 04:47:31;;;;;;;133.70;44.23;;;-4.20;99.90;;;;;;4392910;28;659584;-67
2021/01/10 04:50:18;;;;;;;135.13;43.40;;;-4.30;99.90;;;;;;4390862;28;660440;-68
2021/01/10 04:53:05;;;;;;;150.50;45.33;;;-4.30;99.90;;;;;;4359328;28;659618;-67
2021/01/10 04:55:55;;;;;;;151.23;44.87;;;-4.30;99.90;;;;;;4387218;28;660003;-68
2021/01/10 04:58:42;;;;;;;135.57;44.13;;;-4.30;99.90;;;;;;4374403;28;659951;-68
2021/01/10 05:01:31;;;;;;;137.50;44.83;;;-4.40;99.90;;;;;;4386073;28;660251;-67
2021/01/10 05:04:19;;;;;;;145.67;44.77;;;-4.40;99.90;;;;;;4395422;28;659767;-64
2021/01/10 05:07:06;;;;;;;144.67;44.93;;;-4.40;99.90;;;;;;4414005;28;661685;-67
2021/01/10 05:09:53;;;;;;;147.53;44.17;;;-4.50;99.90;;;;;;4401777;28;659641;-67
2021/01/10 05:12:41;;;;;;;139.83;43.07;;;-4.50;99.90;;;;;;4382348;28;660334;-67
2021/01/10 05:15:28;;;;;;;129.27;41.73;;;-4.60;99.90;;;;;;4413590;28;659762;-68
2021/01/10 05:18:15;;;;;;;138.43;42.37;;;-4.70;99.90;;;;;;4394179;28;659665;-67
2021/01/10 05:21:03;;;;;;;132.63;41.57;;;-4.70;99.90;;;;;;4405920;28;659450;-68
2021/01/10 05:23:55;;;;;;;126.57;40.87;;;-4.80;99.90;;;;;;4392433;28;661143;-68
2021/01/10 05:26:42;;;;;;;130.40;40.87;;;-4.80;99.90;;;;;;4378323;28;659911;-68
2021/01/10 05:29:30;;;;;;;153.33;45.60;;;-4.90;99.90;;;;;;4394415;28;660261;-66
2021/01/10 05:32:19;;;;;;;144.50;44.93;;;-4.80;99.90;;;;;;4412852;28;661103;-68
2021/01/10 05:35:07;;;;;;;138.80;41.87;;;-4.90;99.90;;;;;;4391652;28;661011;-67
2021/01/10 05:37:58;;;;;;;130.77;42.70;;;-5.00;99.90;;;;;;4388596;28;659980;-68
2021/01/10 05:40:45;;;;;;;137.27;40.30;;;-5.00;99.90;;;;;;4394227;28;659620;-67
2021/01/10 05:43:32;;;;;;;115.97;36.47;;;-5.10;99.90;;;;;;4400317;28;660445;-68
2021/01/10 05:46:20;;;;;;;126.07;37.50;;;-5.10;99.90;;;;;;4379873;28;659753;-66
2021/01/10 05:49:20;;;;;;;119.30;37.60;;;-5.20;99.90;;;;;;4407582;28;660395;-68
2021/01/10 05:52:08;;;;;;;122.83;37.40;;;-5.20;99.90;;;;;;4382196;28;660317;-68
2021/01/10 05:54:55;;;;;;;133.73;42.07;;;-5.20;99.90;;;;;;4390501;28;659795;-67
2021/01/10 05:57:42;;;;;;;141.57;40.97;;;-5.20;99.90;;;;;;4398778;28;660694;-67
2021/01/10 06:00:30;;;;;;;125.97;39.40;;;-5.30;99.90;;;;;;4393544;28;659629;-67
2021/01/10 06:03:19;;;;;;;129.80;38.67;;;-5.40;99.90;;;;;;4405971;28;660052;-67
2021/01/10 06:06:07;;;;;;;122.43;37.77;;;-5.40;99.90;;;;;;4390074;28;661422;-67
2021/01/10 06:08:54;;;;;;;101.00;33.90;;;-5.40;99.90;;;;;;4378970;28;660006;-66
2021/01/10 06:11:41;;;;;;;116.40;35.73;;;-5.50;99.90;;;;;;4406584;28;662196;-66
2021/01/10 06:14:28;;;;;;;114.00;37.13;;;-5.50;99.90;;;;;;4404895;28;660729;-67
2021/01/10 06:17:16;;;;;;;113.60;37.33;;;-5.50;99.90;;;;;;4389132;28;661383;-67
2021/01/10 06:20:07;;;;;;;151.00;45.60;;;-5.60;99.90;;;;;;4397238;28;659442;-63
2021/01/10 06:22:54;;;;;;;168.93;50.97;;;-5.60;99.90;;;;;;4393626;28;659834;-64
2021/01/10 06:25:41;;;;;;;141.77;41.93;;;-5.60;99.90;;;;;;4407962;28;661516;-67
2021/01/10 06:28:29;;;;;;;128.02;39.72;;;-5.70;99.90;;;;;;4398366;28;659568;-64
2021/01/10 06:31:16;;;;;;;146.07;42.13;;;-5.70;99.90;;;;;;4409061;28;660909;-68
2021/01/10 06:34:05;;;;;;;120.17;38.70;;;-5.60;99.90;;;;;;4404800;28;659942;-68
2021/01/10 06:36:53;;;;;;;107.07;35.07;;;-5.70;99.90;;;;;;4382289;28;660195;-67
2021/01/10 06:39:45;;;;;;;117.07;35.00;;;-5.70;99.90;;;;;;4393808;28;659594;-68
2021/01/10 06:42:32;;;;;;;138.27;39.90;;;-5.70;99.90;;;;;;4382329;28;660184;-68
2021/01/10 06:45:19;;;;;;;143.57;40.53;;;-5.70;99.90;;;;;;4393308;28;659952;-67
2021/01/10 06:48:06;;;;;;;176.67;43.67;;;-5.70;99.90;;;;;;4410286;28;660749;-67
2021/01/10 06:50:54;;;;;;;147.77;38.47;;;-5.70;99.90;;;;;;4402783;28;659528;-63
2021/01/10 06:53:42;;;;;;;150.10;40.53;;;-5.70;99.90;;;;;;4404883;28;660633;-68
2021/01/10 06:56:29;;;;;;;175.60;43.43;;;-5.70;99.90;;;;;;4386050;28;659769;-64
2021/01/10 06:59:17;;;;;;;156.13;41.65;;;-5.70;99.90;;;;;;4416152;28;660405;-67
2021/01/10 07:02:04;;;;;;;148.67;41.50;;;-5.70;99.90;;;;;;4393955;28;659946;-65
2021/01/10 07:04:58;;;;;;;120.33;36.90;;;-5.60;99.90;;;;;;4404815;28;661314;-68
2021/01/10 07:07:45;;;;;;;130.20;37.58;;;-5.60;99.90;;;;;;4365968;28;660888;-67
2021/01/10 07:10:33;;;;;;;123.13;36.27;;;-5.60;99.90;;;;;;4392015;28;660821;-68
2021/01/10 07:13:27;;;;;;;116.23;36.23;;;-5.50;99.90;;;;;;4389128;28;659773;-67
2021/01/10 07:16:18;;;;;;;115.50;36.93;;;-5.50;99.90;;;;;;4386939;28;660385;-66
2021/01/10 07:19:06;;;;;;;117.20;38.03;;;-5.50;99.90;;;;;;4392102;28;660350;-67
2021/01/10 07:21:55;;;;;;;133.83;37.50;;;-5.40;99.90;;;;;;4403688;28;659655;-63
2021/01/10 07:24:42;;;;;;;191.20;57.80;;;-5.30;99.90;;;;;;4397457;28;661262;-67
2021/01/10 07:27:34;;;;;;;162.67;48.80;;;-5.20;99.90;;;;;;4396210;28;661251;-67
2021/01/10 07:30:24;;;;;;;197.77;56.38;;;-5.10;99.90;;;;;;4392704;28;661376;-67
2021/01/10 07:33:32;;;;;;;223.40;66.67;;;-5.10;99.90;;;;;;4392296;28;661718;-67
2021/01/10 07:36:19;;;;;;;218.90;62.00;;;-5.00;99.90;;;;;;4395872;28;660598;-68
2021/01/10 07:39:07;;;;;;;139.57;49.10;;;-4.80;99.90;;;;;;4415131;28;661547;-67
2021/01/10 07:42:14;;;;;;;140.30;44.63;;;-4.70;99.90;;;;;;4390931;28;659770;-64
2021/01/10 07:45:04;;;;;;;122.93;40.27;;;-4.60;99.90;;;;;;4391473;28;660328;-68
2021/01/10 07:47:51;;;;;;;144.68;45.38;;;-4.40;99.90;;;;;;4394753;28;660336;-68
2021/01/10 07:50:38;;;;;;;130.30;42.53;;;-4.30;99.90;;;;;;4414825;28;659764;-68
2021/01/10 07:53:30;;;;;;;133.17;42.13;;;-4.20;99.90;;;;;;4388404;28;660672;-67
2021/01/10 07:56:17;;;;;;;119.57;38.77;;;-4.00;99.90;;;;;;4391466;28;660558;-67
2021/01/10 07:59:16;;;;;;;120.10;36.63;;;-3.80;99.90;;;;;;4390564;28;659755;-66
2021/01/10 08:02:05;;;;;;;105.27;34.80;;;-3.60;99.90;;;;;;4382272;28;659806;-64
2021/01/10 08:04:52;;;;;;;114.23;37.73;;;-3.40;99.90;;;;;;4409986;28;660274;-68
2021/01/10 08:07:39;;;;;;;113.03;37.73;;;-3.10;99.90;;;;;;4387835;28;660973;-67
2021/01/10 08:10:27;;;;;;;108.80;36.53;;;-2.90;99.90;;;;;;4413899;28;661493;-68
2021/01/10 08:13:33;;;;;;;108.93;37.17;;;-2.90;99.90;;;;;;4393547;28;659647;-66
2021/01/10 08:16:30;;;;;;;103.83;36.17;;;-2.70;99.90;;;;;;4391158;28;659682;-68
2021/01/10 08:19:17;;;;;;;103.53;36.13;;;-2.50;99.90;;;;;;4378398;28;659960;-67
2021/01/10 08:22:05;;;;;;;82.50;29.93;;;-2.40;99.90;;;;;;4395749;28;660279;-68
2021/01/10 08:24:53;;;;;;;85.72;31.23;;;-2.10;99.90;;;;;;4413503;28;660193;-68
2021/01/10 08:27:40;;;;;;;92.03;32.03;;;-1.80;99.90;;;;;;4382728;28;660072;-67
2021/01/10 08:30:27;;;;;;;78.90;29.00;;;-1.40;99.90;;;;;;4415457;28;659170;-68
2021/01/10 08:33:18;;;;;;;75.57;28.53;;;-0.70;99.90;;;;;;4396095;28;658609;-67
2021/01/10 08:36:13;;;;;;;84.83;32.73;;;0.20;99.90;;;;;;4396506;28;658845;-67
2021/01/10 08:39:01;;;;;;;70.83;28.13;;;0.70;99.90;;;;;;4370785;28;658335;-68
2021/01/10 08:41:49;;;;;;;31.37;13.07;;;1.30;99.90;;;;;;4401450;28;657394;-65
2021/01/10 08:44:36;;;;;;;88.20;34.40;;;1.80;99.90;;;;;;4416360;28;659133;-68
2021/01/10 08:47:24;;;;;;;87.23;35.67;;;1.80;99.90;;;;;;4412848;28;657857;-64
2021/01/10 08:50:12;;;;;;;87.90;31.50;;;2.00;99.90;;;;;;4420516;28;657593;-68
2021/01/10 08:53:00;;;;;;;63.37;18.93;;;2.50;99.90;;;;;;4384656;28;657520;-67
2021/01/10 08:55:47;;;;;;;92.70;33.40;;;2.80;99.90;;;;;;4402774;28;658102;-68
2021/01/10 08:58:34;;;;;;;90.83;34.83;;;3.00;99.90;;;;;;4396868;28;657515;-65
2021/01/10 09:01:21;;;;;;;92.90;34.00;;;3.40;99.90;;;;;;4419564;28;660022;-68
2021/01/10 09:04:09;;;;;;;103.60;35.87;;;3.60;99.90;;;;;;4415407;28;657855;-64
2021/01/10 09:07:00;;;;;;;92.97;32.20;;;3.80;99.20;;;;;;4416557;28;659406;-68
2021/01/10 09:09:50;;;;;;;47.13;13.47;;;3.80;95.60;;;;;;4393064;28;658197;-68
2021/01/10 09:12:38;;;;;;;83.77;32.40;;;4.00;92.00;;;;;;4392828;28;659131;-68
2021/01/10 09:15:28;;;;;;;92.87;31.03;;;4.00;91.20;;;;;;4393335;28;658771;-67
2021/01/10 09:18:19;;;;;;;79.43;30.13;;;3.90;86.50;;;;;;4396734;28;658583;-68
2021/01/10 09:21:07;;;;;;;36.20;14.57;;;4.30;82.50;;;;;;4393123;28;659549;-67
2021/01/10 09:23:55;;;;;;;72.20;27.17;;;4.70;76.80;;;;;;4397457;28;657857;-67
2021/01/10 09:26:43;;;;;;;68.73;25.50;;;4.10;75.20;;;;;;4415142;28;658405;-68
2021/01/10 09:29:30;;;;;;;66.73;24.83;;;4.60;75.90;;;;;;4385601;28;658330;-68
2021/01/10 09:32:21;;;;;;;56.53;22.43;;;5.10;73.30;;;;;;4410287;28;657977;-68
2021/01/10 09:35:09;;;;;;;34.10;11.77;;;5.30;70.10;;;;;;4389654;28;657828;-65
2021/01/10 09:37:56;;;;;;;50.33;20.73;;;5.70;68.50;;;;;;4411051;28;658633;-68
2021/01/10 09:41:05;;;;;;;59.27;22.77;;;5.30;68.40;;;;;;4415301;28;658062;-68
2021/01/10 09:43:53;;;;;;;46.80;20.20;;;4.60;70.50;;;;;;4388025;28;658337;-69
2021/01/10 09:46:40;;;;;;;69.23;27.73;;;5.00;70.20;;;;;;4387300;28;659782;-68
2021/01/10 09:49:30;;;;;;;70.50;27.80;;;4.90;70.80;;;;;;4409841;28;657859;-68
2021/01/10 09:52:21;;;;;;;64.90;25.83;;;5.00;70.00;;;;;;4391593;28;657566;-67
2021/01/10 09:55:09;;;;;;;55.22;23.50;;;5.20;69.50;;;;;;4385017;28;658612;-66
2021/01/10 09:57:56;;;;;;;70.70;28.90;;;5.60;68.80;;;;;;4414822;28;659621;-68
2021/01/10 10:00:57;;;;;;;59.67;24.20;;;5.50;66.90;;;;;;4399737;28;657405;-66
2021/01/10 10:03:49;;;;;;;72.00;27.33;;;5.30;68.40;;;;;;4367591;28;657389;-67
2021/01/10 10:06:48;;;;;;;61.83;24.47;;;5.10;70.20;;;;;;4391360;28;658209;-68
2021/01/10 10:09:52;;;;;;;78.47;30.67;;;5.50;67.90;;;;;;4365690;28;658553;-68
2021/01/10 10:12:39;;;;;;;65.73;24.70;;;5.80;68.50;;;;;;4373236;28;657978;-66
2021/01/10 10:15:36;;;;;;;79.22;28.70;;;6.20;66.40;;;;;;4408452;28;657597;-67
2021/01/10 10:18:28;;;;;;;64.47;24.40;;;6.60;66.10;;;;;;4388857;28;657564;-69
2021/01/10 10:21:15;;;;;;;76.07;31.63;;;7.30;63.70;;;;;;4356368;28;659107;-68
2021/01/10 10:24:02;;;;;;;61.60;25.57;;;7.20;63.60;;;;;;4414413;28;657982;-68
2021/01/10 10:26:49;;;;;;;82.83;33.23;;;7.20;62.40;;;;;;4395404;28;657885;-68
2021/01/10 10:29:36;;;;;;;64.43;25.17;;;6.90;63.80;;;;;;4403734;28;657502;-68
2021/01/10 10:32:24;;;;;;;50.08;20.13;;;6.90;62.30;;;;;;4400047;28;658191;-66
2021/01/10 10:35:12;;;;;;;58.60;24.50;;;6.50;61.70;;;;;;4414131;28;657502;-68
2021/01/10 10:37:59;;;;;;;53.10;20.17;;;6.60;62.80;;;;;;4395612;28;657545;-66
2021/01/10 10:40:46;;;;;;;59.40;24.07;;;6.40;62.30;;;;;;4415055;28;658674;-68
2021/01/10 10:43:33;;;;;;;33.03;13.47;;;6.00;64.90;;;;;;4408799;28;657700;-68
2021/01/10 10:46:20;;;;;;;33.90;14.07;;;6.40;62.80;;;;;;4394459;28;658567;-67
2021/01/10 10:49:07;;;;;;;43.23;17.33;;;6.80;62.00;;;;;;4414657;28;659332;-68
2021/01/10 10:51:55;;;;;;;38.27;16.03;;;6.20;61.00;;;;;;4395618;28;657740;-67
2021/01/10 10:54:42;;;;;;;40.03;5.13;;;5.90;60.00;;;;;;4405277;28;656964;-68
2021/01/10 10:57:29;;;;;;;28.90;11.03;;;5.40;62.60;;;;;;4399909;28;657230;-67
2021/01/10 11:00:17;;;;;;;42.57;17.53;;;4.90;63.70;;;;;;4410755;28;658413;-67
2021/01/10 11:03:04;;;;;;;52.87;21.83;;;4.80;64.60;;;;;;4388966;28;657680;-67
2021/01/10 11:05:52;;;;;;;58.73;24.97;;;5.20;64.50;;;;;;4410269;28;658187;-68
2021/01/10 11:08:40;;;;;;;51.28;20.00;;;5.60;64.20;;;;;;4381050;28;657679;-65
2021/01/10 11:11:40;;;;;;;88.10;30.77;;;6.30;61.10;;;;;;4407225;28;658044;-68
2021/01/10 11:14:27;;;;;;;24.50;9.03;;;6.50;57.20;;;;;;4386278;28;657664;-67
2021/01/10 11:17:14;;;;;;;22.52;8.45;;;6.90;57.00;;;;;;4390389;28;658476;-64
2021/01/10 11:20:02;;;;;;;23.30;9.97;;;6.70;57.80;;;;;;4404375;28;657870;-67
2021/01/10 11:22:49;;;;;;;17.73;8.10;;;5.80;57.90;;;;;;4386018;28;656482;-64
2021/01/10 11:25:38;;;;;;;38.93;16.90;;;5.70;59.10;;;;;;4414537;28;656534;-66
2021/01/10 11:28:25;;;;;;;23.13;10.00;;;5.90;58.40;;;;;;4386900;28;657484;-67
2021/01/10 11:31:12;;;;;;;21.40;7.97;;;5.10;59.10;;;;;;4410166;28;658412;-68
2021/01/10 11:33:59;;;;;;;15.47;5.77;;;4.80;59.30;;;;;;4389485;28;656623;-65
2021/01/10 11:37:04;;;;;;;30.10;12.27;;;4.30;59.70;;;;;;4413176;28;658190;-68
2021/01/10 11:39:51;;;;;;;25.70;10.03;;;3.80;61.60;;;;;;4380580;28;659590;-67
2021/01/10 11:42:40;;;;;;;24.63;9.70;;;3.50;64.60;;;;;;4401867;28;658300;-64
2021/01/10 11:45:27;;;;;;;14.83;5.83;;;3.10;63.40;;;;;;4411366;28;658404;-67
2021/01/10 11:48:14;;;;;;;32.95;11.10;;;2.80;64.00;;;;;;4393332;28;657145;-64
2021/01/10 11:51:01;;;;;;;50.80;14.95;;;2.50;62.70;;;;;;4410949;28;657854;-67
2021/01/10 11:53:48;;;;;;;24.90;9.20;;;2.30;64.70;;;;;;4409862;28;657548;-67
2021/01/10 11:56:35;;;;;;;36.37;11.70;;;2.20;64.30;;;;;;4391090;28;657211;-67
2021/01/10 11:59:23;;;;;;;35.20;14.30;;;2.40;65.50;;;;;;4405961;28;658921;-67
2021/01/10 12:02:10;;;;;;;28.60;11.30;;;2.40;67.60;;;;;;4392623;28;657502;-67
2021/01/10 12:04:57;;;;;;;30.83;13.57;;;2.40;68.40;;;;;;4416714;28;658649;-67
2021/01/10 12:07:44;;;;;;;41.07;17.13;;;2.40;71.90;;;;;;4396873;28;657866;-66
2021/01/10 12:10:32;;;;;;;46.17;17.40;;;2.40;74.00;;;;;;4411737;28;659443;-68
2021/01/10 12:13:19;;;;;;;45.10;18.10;;;2.30;75.70;;;;;;4394519;28;657703;-65
2021/01/10 12:16:07;;;;;;;41.87;17.13;;;2.20;77.50;;;;;;4404559;28;659696;-68
2021/01/10 12:18:54;;;;;;;46.63;17.47;;;2.20;79.10;;;;;;4390821;28;658815;-67
2021/01/10 12:21:41;;;;;;;38.97;16.80;;;2.10;80.40;;;;;;4409687;28;659060;-68
2021/01/10 12:24:29;;;;;;;37.43;15.90;;;2.10;82.90;;;;;;4413864;28;658126;-64
2021/01/10 12:27:16;;;;;;;34.40;14.20;;;1.90;81.60;;;;;;4416160;28;657308;-68
2021/01/10 12:30:04;;;;;;;35.13;14.32;;;1.90;82.70;;;;;;4411593;28;658216;-68
2021/01/10 12:32:52;;;;;;;30.40;13.03;;;1.90;86.40;;;;;;4393174;28;658712;-68
2021/01/10 12:35:39;;;;;;;30.80;13.17;;;1.90;86.40;;;;;;4391334;28;657514;-65
2021/01/10 12:38:26;;;;;;;30.23;12.13;;;1.80;80.10;;;;;;4416408;28;658221;-68
2021/01/10 12:41:13;;;;;;;28.20;11.80;;;1.70;82.50;;;;;;4412636;28;658165;-68
2021/01/10 12:44:00;;;;;;;26.77;10.80;;;1.60;80.80;;;;;;4389055;28;658130;-67
2021/01/10 12:46:47;;;;;;;25.17;11.82;;;1.60;80.80;;;;;;4403841;28;658503;-68
2021/01/10 12:49:35;;;;;;;32.77;13.10;;;1.50;79.80;;;;;;4381584;28;658850;-65
2021/01/10 12:52:22;;;;;;;31.57;12.03;;;1.40;80.80;;;;;;4404445;28;657563;-68
2021/01/10 12:55:10;;;;;;;32.97;12.33;;;1.40;80.70;;;;;;4388357;28;657674;-65
2021/01/10 12:57:57;;;;;;;29.43;11.40;;;1.30;76.00;;;;;;4409487;28;658065;-68
2021/01/10 13:00:44;;;;;;;26.70;12.00;;;1.60;74.10;;;;;;4390972;28;659485;-66
2021/01/10 13:03:31;;;;;;;28.73;12.23;;;1.90;73.30;;;;;;4415073;28;659373;-68
2021/01/10 13:06:24;;;;;;;28.23;9.93;;;2.50;66.80;;;;;;4415013;28;657520;-68
2021/01/10 13:09:11;;;;;;;26.07;10.77;;;2.70;64.20;;;;;;4364046;28;657845;-67
2021/01/10 13:11:59;;;;;;;22.47;8.83;;;2.70;63.60;;;;;;4405216;28;657344;-62
2021/01/10 13:14:46;;;;;;;20.10;7.93;;;2.40;64.80;;;;;;4409140;28;657262;-68
2021/01/10 13:17:33;;;;;;;15.63;7.13;;;3.20;66.60;;;;;;4404487;28;656246;-68
2021/01/10 13:20:20;;;;;;;17.48;6.80;;;4.30;60.30;;;;;;4388877;28;656579;-68
2021/01/10 13:23:08;;;;;;;18.93;8.47;;;5.20;58.10;;;;;;4415274;28;658506;-68
2021/01/10 13:25:55;;;;;;;25.57;10.13;;;6.00;55.10;;;;;;4393272;28;657341;-68
2021/01/10 13:28:42;;;;;;;17.00;7.17;;;6.80;55.70;;;;;;4401093;28;659302;-68
2021/01/10 13:31:33;;;;;;;19.07;7.10;;;7.70;49.20;;;;;;4396937;28;656728;-64
2021/01/10 13:34:20;;;;;;;24.63;11.67;;;7.50;47.60;;;;;;4388637;28;657438;-69
2021/01/10 13:37:07;;;;;;;26.23;10.53;;;7.30;49.20;;;;;;4410132;28;658191;-69
2021/01/10 13:39:55;;;;;;;25.87;12.37;;;6.80;49.70;;;;;;4387595;28;657513;-67
2021/01/10 13:42:42;;;;;;;23.55;10.68;;;6.10;50.30;;;;;;4414648;28;659244;-68
2021/01/10 13:45:29;;;;;;;30.73;12.50;;;5.50;51.20;;;;;;4389186;28;658010;-65
2021/01/10 13:48:16;;;;;;;28.85;11.82;;;4.50;51.70;;;;;;4419474;28;657561;-68
2021/01/10 13:51:03;;;;;;;18.77;8.87;;;3.90;54.40;;;;;;4414965;28;657545;-68
2021/01/10 13:53:50;;;;;;;22.00;8.97;;;3.70;55.60;;;;;;4386428;28;657669;-66
2021/01/10 13:56:40;;;;;;;29.27;11.30;;;3.90;57.50;;;;;;4410945;28;656747;-68
2021/01/10 13:59:27;;;;;;;27.10;11.37;;;5.10;54.50;;;;;;4384092;28;657330;-69
2021/01/10 14:02:15;;;;;;;28.97;12.37;;;6.10;53.60;;;;;;4388496;28;658300;-68
2021/01/10 14:05:02;;;;;;;27.60;11.63;;;6.50;51.90;;;;;;4414529;28;659304;-69